sensor_id;sensor_type;location;lat;lon;timestamp;P1;durP1;ratioP1;P2;durP2;ratioP2
33690;SDS011;20026;50.058;18.428;2023-01-15T00:00:56;8.85;;;3.65;;
33690;SDS011;20026;50.058;18.428;2023-01-15T00:03:22;8.10;;;3.30;;
33690;SDS011;20026;50.058;18.428;2023-01-15T00:05:48;11.00;;;5.68;;
33690;SDS011;20026;50.058;18.428;2023-01-15T00:08:14;15.75;;;6.65;;
33690;SDS011;20026;50.058;18.428;2023-01-15T00:10:40;13.90;;;6.93;;
33690;SDS011;20026;50.058;18.428;2023-01-15T00:13:06;6.28;;;3.13;;
33690;SDS011;20026;50.058;18.428;2023-01-15T00:15:32;6.97;;;3.15;;
33690;SDS011;20026;50.058;18.428;2023-01-15T00:17:58;8.45;;;3.42;;
33690;SDS011;20026;50.058;18.428;2023-01-15T00:20:24;8.30;;;3.92;;
33690;SDS011;20026;50.058;18.428;2023-01-15T00:22:50;7.88;;;4.10;;
33690;SDS011;20026;50.058;18.428;2023-01-15T00:25:16;10.15;;;4.82;;
33690;SDS011;20026;50.058;18.428;2023-01-15T00:28:01;12.63;;;4.53;;
33690;SDS011;20026;50.058;18.428;2023-01-15T00:30:27;6.30;;;3.47;;
33690;SDS011;20026;50.058;18.428;2023-01-15T00:32:53;6.55;;;3.25;;
33690;SDS011;20026;50.058;18.428;2023-01-15T00:35:20;7.70;;;3.15;;
33690;SDS011;20026;50.058;18.428;2023-01-15T00:37:46;7.10;;;3.50;;
33690;SDS011;20026;50.058;18.428;2023-01-15T00:40:13;7.22;;;3.85;;
33690;SDS011;20026;50.058;18.428;2023-01-15T00:42:39;7.93;;;3.65;;
33690;SDS011;20026;50.058;18.428;2023-01-15T00:45:06;7.22;;;3.38;;
33690;SDS011;20026;50.058;18.428;2023-01-15T00:47:35;7.63;;;3.85;;
33690;SDS011;20026;50.058;18.428;2023-01-15T00:50:02;7.25;;;4.15;;
33690;SDS011;20026;50.058;18.428;2023-01-15T00:52:28;8.98;;;5.38;;
33690;SDS011;20026;50.058;18.428;2023-01-15T00:54:54;9.25;;;4.13;;
33690;SDS011;20026;50.058;18.428;2023-01-15T00:57:20;6.15;;;3.60;;
33690;SDS011;20026;50.058;18.428;2023-01-15T00:59:46;7.57;;;4.05;;
33690;SDS011;20026;50.058;18.428;2023-01-15T01:02:12;7.60;;;3.55;;
33690;SDS011;20026;50.058;18.428;2023-01-15T01:04:38;4.38;;;2.60;;
33690;SDS011;20026;50.058;18.428;2023-01-15T01:07:04;4.82;;;2.88;;
33690;SDS011;20026;50.058;18.428;2023-01-15T01:09:30;7.10;;;3.40;;
33690;SDS011;20026;50.058;18.428;2023-01-15T01:11:56;6.55;;;3.17;;
33690;SDS011;20026;50.058;18.428;2023-01-15T01:14:22;8.73;;;4.28;;
33690;SDS011;20026;50.058;18.428;2023-01-15T01:16:48;4.03;;;2.55;;
33690;SDS011;20026;50.058;18.428;2023-01-15T01:19:15;4.50;;;2.63;;
33690;SDS011;20026;50.058;18.428;2023-01-15T01:21:41;4.97;;;2.92;;
33690;SDS011;20026;50.058;18.428;2023-01-15T01:24:09;5.32;;;3.40;;
33690;SDS011;20026;50.058;18.428;2023-01-15T01:26:35;5.00;;;3.05;;
33690;SDS011;20026;50.058;18.428;2023-01-15T01:29:02;4.75;;;2.80;;
33690;SDS011;20026;50.058;18.428;2023-01-15T01:31:28;4.38;;;2.88;;
33690;SDS011;20026;50.058;18.428;2023-01-15T01:33:55;3.70;;;2.83;;
33690;SDS011;20026;50.058;18.428;2023-01-15T01:36:25;8.20;;;4.80;;
33690;SDS011;20026;50.058;18.428;2023-01-15T01:38:51;6.72;;;3.00;;
33690;SDS011;20026;50.058;18.428;2023-01-15T01:41:18;6.50;;;2.78;;
33690;SDS011;20026;50.058;18.428;2023-01-15T01:43:51;4.38;;;2.80;;
33690;SDS011;20026;50.058;18.428;2023-01-15T01:46:17;4.13;;;2.80;;
33690;SDS011;20026;50.058;18.428;2023-01-15T01:48:43;4.55;;;2.72;;
33690;SDS011;20026;50.058;18.428;2023-01-15T01:51:10;6.10;;;2.53;;
33690;SDS011;20026;50.058;18.428;2023-01-15T01:53:36;3.92;;;2.60;;
33690;SDS011;20026;50.058;18.428;2023-01-15T01:56:03;10.23;;;3.03;;
33690;SDS011;20026;50.058;18.428;2023-01-15T01:58:32;4.60;;;2.15;;
33690;SDS011;20026;50.058;18.428;2023-01-15T02:00:58;5.68;;;3.10;;
33690;SDS011;20026;50.058;18.428;2023-01-15T02:03:26;3.55;;;2.15;;
33690;SDS011;20026;50.058;18.428;2023-01-15T02:05:53;5.65;;;2.40;;
33690;SDS011;20026;50.058;18.428;2023-01-15T02:08:20;3.90;;;2.90;;
33690;SDS011;20026;50.058;18.428;2023-01-15T02:10:48;5.03;;;2.30;;
33690;SDS011;20026;50.058;18.428;2023-01-15T02:13:26;3.35;;;2.08;;
33690;SDS011;20026;50.058;18.428;2023-01-15T02:15:56;4.50;;;2.30;;
33690;SDS011;20026;50.058;18.428;2023-01-15T02:18:28;3.42;;;2.03;;
33690;SDS011;20026;50.058;18.428;2023-01-15T02:20:59;3.10;;;2.30;;
33690;SDS011;20026;50.058;18.428;2023-01-15T02:28:43;3.60;;;1.85;;
33690;SDS011;20026;50.058;18.428;2023-01-15T02:31:14;5.38;;;3.95;;
33690;SDS011;20026;50.058;18.428;2023-01-15T02:33:48;3.35;;;1.92;;
33690;SDS011;20026;50.058;18.428;2023-01-15T02:36:17;4.13;;;2.03;;
33690;SDS011;20026;50.058;18.428;2023-01-15T02:38:45;4.40;;;1.90;;
33690;SDS011;20026;50.058;18.428;2023-01-15T02:41:12;4.70;;;1.73;;
33690;SDS011;20026;50.058;18.428;2023-01-15T02:43:49;2.78;;;1.63;;
33690;SDS011;20026;50.058;18.428;2023-01-15T02:46:16;3.90;;;1.98;;
33690;SDS011;20026;50.058;18.428;2023-01-15T02:48:43;2.60;;;2.00;;
33690;SDS011;20026;50.058;18.428;2023-01-15T02:51:12;2.50;;;1.83;;
33690;SDS011;20026;50.058;18.428;2023-01-15T02:53:40;5.95;;;2.13;;
33690;SDS011;20026;50.058;18.428;2023-01-15T02:56:09;3.45;;;1.70;;
33690;SDS011;20026;50.058;18.428;2023-01-15T02:58:36;3.95;;;1.73;;
33690;SDS011;20026;50.058;18.428;2023-01-15T03:01:06;5.65;;;2.20;;
33690;SDS011;20026;50.058;18.428;2023-01-15T03:08:44;4.07;;;2.53;;
33690;SDS011;20026;50.058;18.428;2023-01-15T03:11:11;2.63;;;1.70;;
33690;SDS011;20026;50.058;18.428;2023-01-15T03:13:50;5.57;;;3.58;;
33690;SDS011;20026;50.058;18.428;2023-01-15T03:16:21;4.35;;;2.15;;
33690;SDS011;20026;50.058;18.428;2023-01-15T03:21:37;4.30;;;2.42;;
33690;SDS011;20026;50.058;18.428;2023-01-15T03:24:04;3.50;;;2.03;;
33690;SDS011;20026;50.058;18.428;2023-01-15T03:26:32;6.40;;;2.50;;
33690;SDS011;20026;50.058;18.428;2023-01-15T03:28:58;3.95;;;2.10;;
33690;SDS011;20026;50.058;18.428;2023-01-15T03:31:25;5.13;;;2.53;;
33690;SDS011;20026;50.058;18.428;2023-01-15T03:33:51;4.13;;;2.45;;
33690;SDS011;20026;50.058;18.428;2023-01-15T03:36:18;4.78;;;2.30;;
33690;SDS011;20026;50.058;18.428;2023-01-15T03:38:44;3.42;;;2.10;;
33690;SDS011;20026;50.058;18.428;2023-01-15T03:41:24;4.82;;;2.50;;
33690;SDS011;20026;50.058;18.428;2023-01-15T03:46:58;2.67;;;1.83;;
33690;SDS011;20026;50.058;18.428;2023-01-15T03:52:00;41.85;;;22.02;;
33690;SDS011;20026;50.058;18.428;2023-01-15T03:54:45;21.60;;;8.05;;
33690;SDS011;20026;50.058;18.428;2023-01-15T03:57:14;10.98;;;4.15;;
33690;SDS011;20026;50.058;18.428;2023-01-15T04:02:08;4.35;;;1.92;;
33690;SDS011;20026;50.058;18.428;2023-01-15T04:04:37;18.88;;;5.18;;
33690;SDS011;20026;50.058;18.428;2023-01-15T04:07:04;13.38;;;4.10;;
33690;SDS011;20026;50.058;18.428;2023-01-15T04:09:30;3.63;;;1.98;;
33690;SDS011;20026;50.058;18.428;2023-01-15T04:11:57;7.22;;;2.35;;
33690;SDS011;20026;50.058;18.428;2023-01-15T04:14:23;11.73;;;3.53;;
33690;SDS011;20026;50.058;18.428;2023-01-15T04:16:49;5.40;;;2.42;;
33690;SDS011;20026;50.058;18.428;2023-01-15T04:19:17;25.23;;;8.18;;
33690;SDS011;20026;50.058;18.428;2023-01-15T04:21:43;5.25;;;2.05;;
33690;SDS011;20026;50.058;18.428;2023-01-15T04:24:09;21.55;;;5.90;;
33690;SDS011;20026;50.058;18.428;2023-01-15T04:26:35;3.63;;;2.20;;
33690;SDS011;20026;50.058;18.428;2023-01-15T04:29:01;59.05;;;14.25;;
33690;SDS011;20026;50.058;18.428;2023-01-15T04:31:27;4.35;;;2.15;;
33690;SDS011;20026;50.058;18.428;2023-01-15T04:33:56;25.52;;;7.55;;
33690;SDS011;20026;50.058;18.428;2023-01-15T04:36:22;3.80;;;2.13;;
33690;SDS011;20026;50.058;18.428;2023-01-15T04:38:48;7.47;;;2.88;;
33690;SDS011;20026;50.058;18.428;2023-01-15T04:41:14;12.02;;;4.00;;
33690;SDS011;20026;50.058;18.428;2023-01-15T04:43:59;8.40;;;4.10;;
33690;SDS011;20026;50.058;18.428;2023-01-15T04:46:32;5.00;;;2.83;;
33690;SDS011;20026;50.058;18.428;2023-01-15T04:48:58;6.95;;;3.42;;
33690;SDS011;20026;50.058;18.428;2023-01-15T04:51:24;6.25;;;3.25;;
33690;SDS011;20026;50.058;18.428;2023-01-15T04:53:50;5.35;;;2.92;;
33690;SDS011;20026;50.058;18.428;2023-01-15T04:56:16;4.80;;;2.75;;
33690;SDS011;20026;50.058;18.428;2023-01-15T04:58:42;4.10;;;2.38;;
33690;SDS011;20026;50.058;18.428;2023-01-15T05:01:12;3.95;;;2.30;;
33690;SDS011;20026;50.058;18.428;2023-01-15T05:03:39;6.47;;;2.40;;
33690;SDS011;20026;50.058;18.428;2023-01-15T05:06:05;7.28;;;3.72;;
33690;SDS011;20026;50.058;18.428;2023-01-15T05:08:31;11.60;;;8.55;;
33690;SDS011;20026;50.058;18.428;2023-01-15T05:11:01;7.18;;;3.90;;
33690;SDS011;20026;50.058;18.428;2023-01-15T05:13:27;3.90;;;2.60;;
33690;SDS011;20026;50.058;18.428;2023-01-15T05:15:54;6.45;;;4.50;;
33690;SDS011;20026;50.058;18.428;2023-01-15T05:18:20;3.92;;;2.65;;
33690;SDS011;20026;50.058;18.428;2023-01-15T05:20:46;4.55;;;2.58;;
33690;SDS011;20026;50.058;18.428;2023-01-15T05:23:12;4.72;;;2.63;;
33690;SDS011;20026;50.058;18.428;2023-01-15T05:25:38;5.50;;;2.92;;
33690;SDS011;20026;50.058;18.428;2023-01-15T05:28:04;7.05;;;4.45;;
33690;SDS011;20026;50.058;18.428;2023-01-15T05:30:30;5.75;;;3.53;;
33690;SDS011;20026;50.058;18.428;2023-01-15T05:32:56;6.18;;;3.80;;
33690;SDS011;20026;50.058;18.428;2023-01-15T05:35:22;4.68;;;3.45;;
33690;SDS011;20026;50.058;18.428;2023-01-15T05:37:48;8.43;;;5.35;;
33690;SDS011;20026;50.058;18.428;2023-01-15T05:40:14;5.88;;;3.67;;
33690;SDS011;20026;50.058;18.428;2023-01-15T05:42:40;8.80;;;5.15;;
33690;SDS011;20026;50.058;18.428;2023-01-15T05:45:06;5.82;;;3.65;;
33690;SDS011;20026;50.058;18.428;2023-01-15T05:47:32;5.82;;;3.90;;
33690;SDS011;20026;50.058;18.428;2023-01-15T05:49:59;11.40;;;8.00;;
33690;SDS011;20026;50.058;18.428;2023-01-15T05:52:25;6.28;;;3.15;;
33690;SDS011;20026;50.058;18.428;2023-01-15T05:54:51;8.63;;;4.50;;
33690;SDS011;20026;50.058;18.428;2023-01-15T05:57:17;6.15;;;4.55;;
33690;SDS011;20026;50.058;18.428;2023-01-15T05:59:43;6.30;;;3.67;;
33690;SDS011;20026;50.058;18.428;2023-01-15T06:02:09;5.43;;;3.63;;
33690;SDS011;20026;50.058;18.428;2023-01-15T06:04:35;5.78;;;3.20;;
33690;SDS011;20026;50.058;18.428;2023-01-15T06:07:01;5.70;;;3.55;;
33690;SDS011;20026;50.058;18.428;2023-01-15T06:09:27;13.73;;;8.45;;
33690;SDS011;20026;50.058;18.428;2023-01-15T06:11:54;16.27;;;8.43;;
33690;SDS011;20026;50.058;18.428;2023-01-15T06:14:21;12.38;;;6.82;;
33690;SDS011;20026;50.058;18.428;2023-01-15T06:16:47;32.50;;;17.70;;
33690;SDS011;20026;50.058;18.428;2023-01-15T06:19:13;18.13;;;9.70;;
33690;SDS011;20026;50.058;18.428;2023-01-15T06:21:39;18.27;;;11.13;;
33690;SDS011;20026;50.058;18.428;2023-01-15T06:24:05;9.82;;;6.85;;
33690;SDS011;20026;50.058;18.428;2023-01-15T06:26:31;9.02;;;5.00;;
33690;SDS011;20026;50.058;18.428;2023-01-15T06:28:57;6.53;;;3.65;;
33690;SDS011;20026;50.058;18.428;2023-01-15T06:31:23;6.47;;;3.92;;
33690;SDS011;20026;50.058;18.428;2023-01-15T06:33:53;5.88;;;3.70;;
33690;SDS011;20026;50.058;18.428;2023-01-15T06:36:20;8.10;;;4.57;;
33690;SDS011;20026;50.058;18.428;2023-01-15T06:38:46;9.98;;;5.55;;
33690;SDS011;20026;50.058;18.428;2023-01-15T06:41:14;7.35;;;4.30;;
33690;SDS011;20026;50.058;18.428;2023-01-15T06:44:00;11.82;;;6.40;;
33690;SDS011;20026;50.058;18.428;2023-01-15T06:46:45;6.35;;;3.97;;
33690;SDS011;20026;50.058;18.428;2023-01-15T06:49:31;8.23;;;4.75;;
33690;SDS011;20026;50.058;18.428;2023-01-15T06:51:57;9.43;;;4.82;;
33690;SDS011;20026;50.058;18.428;2023-01-15T06:54:23;7.95;;;4.28;;
33690;SDS011;20026;50.058;18.428;2023-01-15T06:56:49;8.25;;;4.60;;
33690;SDS011;20026;50.058;18.428;2023-01-15T06:59:16;9.20;;;4.70;;
33690;SDS011;20026;50.058;18.428;2023-01-15T07:01:42;15.65;;;9.60;;
33690;SDS011;20026;50.058;18.428;2023-01-15T07:04:08;12.63;;;6.00;;
33690;SDS011;20026;50.058;18.428;2023-01-15T07:06:34;10.65;;;6.28;;
33690;SDS011;20026;50.058;18.428;2023-01-15T07:09:00;7.53;;;4.88;;
33690;SDS011;20026;50.058;18.428;2023-01-15T07:11:26;8.55;;;4.72;;
33690;SDS011;20026;50.058;18.428;2023-01-15T07:13:52;7.18;;;4.25;;
33690;SDS011;20026;50.058;18.428;2023-01-15T07:16:33;16.50;;;9.18;;
33690;SDS011;20026;50.058;18.428;2023-01-15T07:18:59;9.48;;;6.80;;
33690;SDS011;20026;50.058;18.428;2023-01-15T07:21:25;18.60;;;12.00;;
33690;SDS011;20026;50.058;18.428;2023-01-15T07:23:51;7.93;;;4.85;;
33690;SDS011;20026;50.058;18.428;2023-01-15T07:26:17;57.85;;;44.70;;
33690;SDS011;20026;50.058;18.428;2023-01-15T07:28:43;14.15;;;6.60;;
33690;SDS011;20026;50.058;18.428;2023-01-15T07:31:09;9.52;;;5.80;;
33690;SDS011;20026;50.058;18.428;2023-01-15T07:33:35;8.02;;;4.32;;
33690;SDS011;20026;50.058;18.428;2023-01-15T07:36:01;8.98;;;4.57;;
33690;SDS011;20026;50.058;18.428;2023-01-15T07:38:28;23.70;;;12.73;;
33690;SDS011;20026;50.058;18.428;2023-01-15T07:40:57;65.10;;;24.65;;
33690;SDS011;20026;50.058;18.428;2023-01-15T07:43:42;59.78;;;24.88;;
33690;SDS011;20026;50.058;18.428;2023-01-15T07:46:27;70.13;;;28.45;;
33690;SDS011;20026;50.058;18.428;2023-01-15T07:49:12;77.63;;;31.90;;
33690;SDS011;20026;50.058;18.428;2023-01-15T07:51:57;29.95;;;13.85;;
33690;SDS011;20026;50.058;18.428;2023-01-15T07:54:23;32.58;;;15.02;;
33690;SDS011;20026;50.058;18.428;2023-01-15T07:56:49;21.05;;;10.65;;
33690;SDS011;20026;50.058;18.428;2023-01-15T07:59:16;15.65;;;7.80;;
33690;SDS011;20026;50.058;18.428;2023-01-15T08:01:42;10.35;;;5.40;;
33690;SDS011;20026;50.058;18.428;2023-01-15T08:04:08;8.32;;;4.93;;
33690;SDS011;20026;50.058;18.428;2023-01-15T08:06:34;8.10;;;4.22;;
33690;SDS011;20026;50.058;18.428;2023-01-15T08:09:00;11.13;;;5.10;;
33690;SDS011;20026;50.058;18.428;2023-01-15T08:11:26;10.57;;;6.72;;
33690;SDS011;20026;50.058;18.428;2023-01-15T08:14:11;60.38;;;49.47;;
33690;SDS011;20026;50.058;18.428;2023-01-15T08:16:55;9.65;;;4.80;;
33690;SDS011;20026;50.058;18.428;2023-01-15T08:19:22;9.40;;;5.25;;
33690;SDS011;20026;50.058;18.428;2023-01-15T08:21:49;8.80;;;4.28;;
33690;SDS011;20026;50.058;18.428;2023-01-15T08:24:15;10.05;;;4.40;;
33690;SDS011;20026;50.058;18.428;2023-01-15T08:26:41;10.55;;;4.97;;
33690;SDS011;20026;50.058;18.428;2023-01-15T08:29:07;60.30;;;40.22;;
33690;SDS011;20026;50.058;18.428;2023-01-15T08:31:33;26.52;;;18.10;;
33690;SDS011;20026;50.058;18.428;2023-01-15T08:34:01;22.05;;;14.93;;
33690;SDS011;20026;50.058;18.428;2023-01-15T08:36:27;79.25;;;34.72;;
33690;SDS011;20026;50.058;18.428;2023-01-15T08:38:53;55.67;;;27.15;;
33690;SDS011;20026;50.058;18.428;2023-01-15T08:41:19;57.67;;;44.88;;
33690;SDS011;20026;50.058;18.428;2023-01-15T08:43:45;55.15;;;43.30;;
33690;SDS011;20026;50.058;18.428;2023-01-15T08:46:11;31.13;;;24.45;;
33690;SDS011;20026;50.058;18.428;2023-01-15T08:48:37;10.52;;;6.13;;
33690;SDS011;20026;50.058;18.428;2023-01-15T08:51:07;14.70;;;9.20;;
33690;SDS011;20026;50.058;18.428;2023-01-15T08:53:33;13.85;;;8.65;;
33690;SDS011;20026;50.058;18.428;2023-01-15T08:55:59;21.35;;;13.45;;
33690;SDS011;20026;50.058;18.428;2023-01-15T08:58:29;31.77;;;16.20;;
33690;SDS011;20026;50.058;18.428;2023-01-15T09:00:56;35.97;;;19.02;;
33690;SDS011;20026;50.058;18.428;2023-01-15T09:03:28;36.47;;;17.45;;
33690;SDS011;20026;50.058;18.428;2023-01-15T09:05:56;29.08;;;14.55;;
33690;SDS011;20026;50.058;18.428;2023-01-15T09:08:22;18.55;;;8.48;;
33690;SDS011;20026;50.058;18.428;2023-01-15T09:10:48;28.88;;;14.05;;
33690;SDS011;20026;50.058;18.428;2023-01-15T09:13:14;15.93;;;8.93;;
33690;SDS011;20026;50.058;18.428;2023-01-15T09:15:40;13.32;;;7.95;;
33690;SDS011;20026;50.058;18.428;2023-01-15T09:18:06;12.45;;;6.53;;
33690;SDS011;20026;50.058;18.428;2023-01-15T09:20:35;12.77;;;5.28;;
33690;SDS011;20026;50.058;18.428;2023-01-15T09:23:01;10.05;;;6.03;;
33690;SDS011;20026;50.058;18.428;2023-01-15T09:25:27;9.38;;;5.78;;
33690;SDS011;20026;50.058;18.428;2023-01-15T09:27:56;8.05;;;5.85;;
33690;SDS011;20026;50.058;18.428;2023-01-15T09:30:22;18.08;;;10.93;;
33690;SDS011;20026;50.058;18.428;2023-01-15T09:32:48;8.40;;;6.68;;
33690;SDS011;20026;50.058;18.428;2023-01-15T09:35:14;6.32;;;4.40;;
33690;SDS011;20026;50.058;18.428;2023-01-15T09:37:40;10.75;;;6.45;;
33690;SDS011;20026;50.058;18.428;2023-01-15T09:40:06;11.00;;;9.07;;
33690;SDS011;20026;50.058;18.428;2023-01-15T09:42:39;16.20;;;10.10;;
33690;SDS011;20026;50.058;18.428;2023-01-15T09:45:16;13.73;;;8.25;;
33690;SDS011;20026;50.058;18.428;2023-01-15T09:47:55;12.45;;;5.18;;
33690;SDS011;20026;50.058;18.428;2023-01-15T09:50:28;23.52;;;14.00;;
33690;SDS011;20026;50.058;18.428;2023-01-15T09:53:17;161.63;;;107.32;;
33690;SDS011;20026;50.058;18.428;2023-01-15T09:55:46;415.95;;;262.02;;
33690;SDS011;20026;50.058;18.428;2023-01-15T09:58:14;162.73;;;101.55;;
33690;SDS011;20026;50.058;18.428;2023-01-15T10:00:42;118.55;;;80.63;;
33690;SDS011;20026;50.058;18.428;2023-01-15T10:05:57;195.30;;;127.95;;
33690;SDS011;20026;50.058;18.428;2023-01-15T10:08:31;196.27;;;136.88;;
33690;SDS011;20026;50.058;18.428;2023-01-15T10:10:59;124.03;;;89.05;;
33690;SDS011;20026;50.058;18.428;2023-01-15T10:13:34;110.13;;;95.35;;
33690;SDS011;20026;50.058;18.428;2023-01-15T10:16:03;32.40;;;25.15;;
33690;SDS011;20026;50.058;18.428;2023-01-15T10:18:30;20.80;;;15.93;;
33690;SDS011;20026;50.058;18.428;2023-01-15T10:21:03;15.45;;;7.60;;
33690;SDS011;20026;50.058;18.428;2023-01-15T10:23:36;21.48;;;11.25;;
33690;SDS011;20026;50.058;18.428;2023-01-15T10:26:21;14.88;;;8.40;;
33690;SDS011;20026;50.058;18.428;2023-01-15T10:28:56;20.80;;;8.50;;
33690;SDS011;20026;50.058;18.428;2023-01-15T10:31:26;14.07;;;6.70;;
33690;SDS011;20026;50.058;18.428;2023-01-15T10:36:44;15.75;;;8.35;;
33690;SDS011;20026;50.058;18.428;2023-01-15T10:39:25;16.00;;;6.20;;
33690;SDS011;20026;50.058;18.428;2023-01-15T10:44:51;14.65;;;8.40;;
33690;SDS011;20026;50.058;18.428;2023-01-15T10:47:25;12.43;;;5.97;;
33690;SDS011;20026;50.058;18.428;2023-01-15T10:49:53;9.98;;;5.40;;
33690;SDS011;20026;50.058;18.428;2023-01-15T10:52:22;12.38;;;5.80;;
33690;SDS011;20026;50.058;18.428;2023-01-15T10:54:51;10.90;;;6.20;;
33690;SDS011;20026;50.058;18.428;2023-01-15T11:00:13;26.27;;;13.18;;
33690;SDS011;20026;50.058;18.428;2023-01-15T11:02:41;12.20;;;7.13;;
33690;SDS011;20026;50.058;18.428;2023-01-15T11:05:11;20.85;;;10.55;;
33690;SDS011;20026;50.058;18.428;2023-01-15T11:07:43;22.35;;;10.98;;
33690;SDS011;20026;50.058;18.428;2023-01-15T11:10:11;16.48;;;8.25;;
33690;SDS011;20026;50.058;18.428;2023-01-15T11:15:44;19.88;;;9.98;;
33690;SDS011;20026;50.058;18.428;2023-01-15T11:18:39;39.63;;;19.83;;
33690;SDS011;20026;50.058;18.428;2023-01-15T11:21:24;16.80;;;8.15;;
33690;SDS011;20026;50.058;18.428;2023-01-15T11:23:51;22.90;;;13.55;;
33690;SDS011;20026;50.058;18.428;2023-01-15T11:28:48;27.47;;;14.30;;
33690;SDS011;20026;50.058;18.428;2023-01-15T11:31:14;93.82;;;54.00;;
33690;SDS011;20026;50.058;18.428;2023-01-15T11:33:59;88.00;;;40.70;;
33690;SDS011;20026;50.058;18.428;2023-01-15T11:36:26;24.58;;;12.73;;
33690;SDS011;20026;50.058;18.428;2023-01-15T11:38:54;18.67;;;8.60;;
33690;SDS011;20026;50.058;18.428;2023-01-15T11:44:09;12.07;;;6.90;;
33690;SDS011;20026;50.058;18.428;2023-01-15T11:46:54;15.90;;;7.43;;
33690;SDS011;20026;50.058;18.428;2023-01-15T11:49:38;19.20;;;8.80;;
33690;SDS011;20026;50.058;18.428;2023-01-15T11:52:23;17.13;;;8.88;;
33690;SDS011;20026;50.058;18.428;2023-01-15T11:54:57;39.80;;;17.83;;
33690;SDS011;20026;50.058;18.428;2023-01-15T11:57:25;34.20;;;15.63;;
33690;SDS011;20026;50.058;18.428;2023-01-15T11:59:52;21.88;;;10.95;;
33690;SDS011;20026;50.058;18.428;2023-01-15T12:05:18;52.38;;;23.95;;
33690;SDS011;20026;50.058;18.428;2023-01-15T12:07:45;49.25;;;21.50;;
33690;SDS011;20026;50.058;18.428;2023-01-15T12:17:54;66.80;;;44.75;;
33690;SDS011;20026;50.058;18.428;2023-01-15T12:28:34;39.25;;;17.30;;
33690;SDS011;20026;50.058;18.428;2023-01-15T12:31:19;33.80;;;15.95;;
33690;SDS011;20026;50.058;18.428;2023-01-15T12:33:47;42.60;;;19.45;;
33690;SDS011;20026;50.058;18.428;2023-01-15T12:36:25;33.63;;;16.60;;
33690;SDS011;20026;50.058;18.428;2023-01-15T12:41:26;24.80;;;10.23;;
33690;SDS011;20026;50.058;18.428;2023-01-15T12:44:15;25.48;;;11.15;;
33690;SDS011;20026;50.058;18.428;2023-01-15T12:47:06;31.48;;;16.10;;
33690;SDS011;20026;50.058;18.428;2023-01-15T12:49:35;20.60;;;10.75;;
33690;SDS011;20026;50.058;18.428;2023-01-15T12:54:33;58.08;;;41.38;;
33690;SDS011;20026;50.058;18.428;2023-01-15T12:57:04;21.08;;;10.65;;
33690;SDS011;20026;50.058;18.428;2023-01-15T12:59:35;34.45;;;18.80;;
33690;SDS011;20026;50.058;18.428;2023-01-15T13:04:49;133.65;;;84.75;;
33690;SDS011;20026;50.058;18.428;2023-01-15T13:09:47;37.92;;;26.90;;
33690;SDS011;20026;50.058;18.428;2023-01-15T13:12:14;44.30;;;27.42;;
33690;SDS011;20026;50.058;18.428;2023-01-15T13:14:41;81.38;;;44.00;;
33690;SDS011;20026;50.058;18.428;2023-01-15T13:17:10;35.25;;;21.70;;
33690;SDS011;20026;50.058;18.428;2023-01-15T13:19:47;35.13;;;21.40;;
33690;SDS011;20026;50.058;18.428;2023-01-15T13:22:17;71.85;;;37.10;;
33690;SDS011;20026;50.058;18.428;2023-01-15T13:30:00;38.03;;;21.08;;
33690;SDS011;20026;50.058;18.428;2023-01-15T13:32:31;30.10;;;19.80;;
33690;SDS011;20026;50.058;18.428;2023-01-15T13:35:20;53.00;;;33.55;;
33690;SDS011;20026;50.058;18.428;2023-01-15T13:37:50;121.70;;;91.22;;
33690;SDS011;20026;50.058;18.428;2023-01-15T13:40:28;51.88;;;32.50;;
33690;SDS011;20026;50.058;18.428;2023-01-15T13:43:00;34.03;;;22.98;;
33690;SDS011;20026;50.058;18.428;2023-01-15T13:45:42;43.45;;;29.92;;
33690;SDS011;20026;50.058;18.428;2023-01-15T13:48:22;38.58;;;20.48;;
33690;SDS011;20026;50.058;18.428;2023-01-15T13:50:51;46.60;;;29.80;;
33690;SDS011;20026;50.058;18.428;2023-01-15T13:56:03;67.65;;;42.72;;
33690;SDS011;20026;50.058;18.428;2023-01-15T13:58:31;38.80;;;22.05;;
33690;SDS011;20026;50.058;18.428;2023-01-15T14:01:04;37.38;;;24.27;;
33690;SDS011;20026;50.058;18.428;2023-01-15T14:03:32;42.75;;;23.23;;
33690;SDS011;20026;50.058;18.428;2023-01-15T14:06:02;39.67;;;22.30;;
33690;SDS011;20026;50.058;18.428;2023-01-15T14:08:38;67.13;;;32.38;;
33690;SDS011;20026;50.058;18.428;2023-01-15T14:11:05;46.13;;;25.40;;
33690;SDS011;20026;50.058;18.428;2023-01-15T14:19:21;27.55;;;18.15;;
33690;SDS011;20026;50.058;18.428;2023-01-15T14:22:02;56.50;;;27.35;;
33690;SDS011;20026;50.058;18.428;2023-01-15T14:32:23;39.70;;;24.83;;
33690;SDS011;20026;50.058;18.428;2023-01-15T14:34:54;42.85;;;23.90;;
33690;SDS011;20026;50.058;18.428;2023-01-15T14:37:25;27.02;;;15.88;;
33690;SDS011;20026;50.058;18.428;2023-01-15T14:39:54;64.13;;;27.95;;
33690;SDS011;20026;50.058;18.428;2023-01-15T14:45:14;46.22;;;27.40;;
33690;SDS011;20026;50.058;18.428;2023-01-15T14:50:22;39.22;;;24.98;;
33690;SDS011;20026;50.058;18.428;2023-01-15T14:52:53;65.53;;;37.15;;
33690;SDS011;20026;50.058;18.428;2023-01-15T14:55:20;38.03;;;22.95;;
33690;SDS011;20026;50.058;18.428;2023-01-15T14:57:54;40.83;;;26.52;;
33690;SDS011;20026;50.058;18.428;2023-01-15T15:00:22;88.35;;;40.92;;
33690;SDS011;20026;50.058;18.428;2023-01-15T15:02:49;63.75;;;34.08;;
33690;SDS011;20026;50.058;18.428;2023-01-15T15:05:16;60.13;;;34.83;;
33690;SDS011;20026;50.058;18.428;2023-01-15T15:07:43;108.30;;;52.88;;
33690;SDS011;20026;50.058;18.428;2023-01-15T15:17:42;61.92;;;29.73;;
33690;SDS011;20026;50.058;18.428;2023-01-15T15:22:59;67.47;;;32.95;;
33690;SDS011;20026;50.058;18.428;2023-01-15T15:25:28;52.13;;;28.33;;
33690;SDS011;20026;50.058;18.428;2023-01-15T15:28:02;111.68;;;84.97;;
33690;SDS011;20026;50.058;18.428;2023-01-15T15:30:28;210.02;;;180.05;;
33690;SDS011;20026;50.058;18.428;2023-01-15T15:32:56;54.63;;;29.27;;
33690;SDS011;20026;50.058;18.428;2023-01-15T15:35:23;39.53;;;16.90;;
33690;SDS011;20026;50.058;18.428;2023-01-15T15:37:51;37.70;;;16.00;;
33690;SDS011;20026;50.058;18.428;2023-01-15T15:40:18;32.65;;;14.82;;
33690;SDS011;20026;50.058;18.428;2023-01-15T15:45:33;39.75;;;17.75;;
33690;SDS011;20026;50.058;18.428;2023-01-15T15:48:31;26.35;;;13.02;;
33690;SDS011;20026;50.058;18.428;2023-01-15T15:54:01;27.88;;;15.68;;
33690;SDS011;20026;50.058;18.428;2023-01-15T15:56:27;43.58;;;17.15;;
33690;SDS011;20026;50.058;18.428;2023-01-15T15:58:53;51.38;;;22.55;;
33690;SDS011;20026;50.058;18.428;2023-01-15T16:01:21;27.92;;;11.73;;
33690;SDS011;20026;50.058;18.428;2023-01-15T16:03:47;29.90;;;13.93;;
33690;SDS011;20026;50.058;18.428;2023-01-15T16:06:19;16.75;;;10.07;;
33690;SDS011;20026;50.058;18.428;2023-01-15T16:08:51;38.92;;;19.08;;
33690;SDS011;20026;50.058;18.428;2023-01-15T16:11:18;156.57;;;81.78;;
33690;SDS011;20026;50.058;18.428;2023-01-15T16:13:46;46.38;;;34.90;;
33690;SDS011;20026;50.058;18.428;2023-01-15T16:16:13;102.53;;;81.60;;
33690;SDS011;20026;50.058;18.428;2023-01-15T16:18:41;105.70;;;60.50;;
33690;SDS011;20026;50.058;18.428;2023-01-15T16:21:18;403.10;;;133.82;;
33690;SDS011;20026;50.058;18.428;2023-01-15T16:23:58;199.00;;;70.75;;
33690;SDS011;20026;50.058;18.428;2023-01-15T16:26:39;199.68;;;71.22;;